createdAt,value
2019-03-04T00:00:41.066Z,42.23
2019-03-04T00:03:12.383Z,43.03
2019-03-04T00:05:45.158Z,40.53
2019-03-04T00:08:16.387Z,42.47
2019-03-04T00:10:46.096Z,41.23
2019-03-04T00:13:15.744Z,41.47
2019-03-04T00:15:45.633Z,39.93
2019-03-04T00:18:24.163Z,41.33
2019-03-04T00:20:53.851Z,40.80
2019-03-04T00:23:23.515Z,42.63
2019-03-04T00:25:53.167Z,39.73
2019-03-04T00:28:22.843Z,41.23
2019-03-04T00:30:52.555Z,41.03
2019-03-04T00:33:22.212Z,42.77
2019-03-04T00:35:51.997Z,43.43
2019-03-04T00:38:23.142Z,41.33
2019-03-04T00:40:53.921Z,41.13
2019-03-04T00:43:25.101Z,41.17
2019-03-04T00:45:54.982Z,42.27
2019-03-04T00:48:24.645Z,41.00
2019-03-04T00:50:54.319Z,41.13
2019-03-04T00:53:23.994Z,41.63
2019-03-04T00:55:53.720Z,39.50
2019-03-04T00:58:23.413Z,41.27
2019-03-04T01:00:53.062Z,42.00
2019-03-04T01:03:22.716Z,41.50
2019-03-04T01:05:52.394Z,40.60
2019-03-04T01:08:22.051Z,40.23
2019-03-04T01:10:51.915Z,39.53
2019-03-04T01:13:23.983Z,41.30
2019-03-04T01:15:53.642Z,40.17
2019-03-04T01:18:23.322Z,40.83
2019-03-04T01:20:53.003Z,40.80
2019-03-04T01:23:22.669Z,40.70
2019-03-04T01:25:52.315Z,40.03
2019-03-04T01:28:22.006Z,40.47
2019-03-04T01:30:51.677Z,39.97
2019-03-04T01:33:21.396Z,42.70
2019-03-04T01:35:52.745Z,41.80
2019-03-04T01:38:23.197Z,41.10
2019-03-04T01:40:52.851Z,40.60
2019-03-04T01:43:22.592Z,41.70
2019-03-04T01:45:52.194Z,39.97
2019-03-04T01:48:23.178Z,40.73
2019-03-04T01:50:52.851Z,40.37
2019-03-04T01:53:23.619Z,40.50
2019-03-04T01:55:54.467Z,42.53
2019-03-04T01:58:24.136Z,40.67
2019-03-04T02:00:55.056Z,40.20
2019-03-04T02:03:24.712Z,41.67
2019-03-04T02:05:54.386Z,41.87
2019-03-04T02:08:25.309Z,39.53
2019-03-04T02:10:56.108Z,40.83
2019-03-04T02:13:27.410Z,39.70
2019-03-04T02:15:57.064Z,39.63
2019-03-04T02:18:26.731Z,39.17
2019-03-04T02:20:57.090Z,39.67
2019-03-04T02:23:26.761Z,39.90
2019-03-04T02:26:09.560Z,40.07
2019-03-04T02:28:39.236Z,39.80
2019-03-04T02:31:08.901Z,40.73
2019-03-04T02:33:38.615Z,41.23
2019-03-04T02:36:08.236Z,45.73
2019-03-04T02:38:37.895Z,40.50
2019-03-04T02:41:07.584Z,42.47
2019-03-04T02:43:37.248Z,42.40
2019-03-04T02:46:06.898Z,39.43
2019-03-04T02:48:36.563Z,39.70
2019-03-04T02:51:06.610Z,39.17
2019-03-04T02:53:36.267Z,39.03
2019-03-04T02:56:05.933Z,39.17
2019-03-04T02:58:35.595Z,39.57
2019-03-04T03:01:05.525Z,39.10
2019-03-04T03:03:35.206Z,40.63
2019-03-04T03:06:04.852Z,39.53
2019-03-04T03:08:34.526Z,39.33
2019-03-04T03:11:04.276Z,39.60
2019-03-04T03:13:33.939Z,39.63
2019-03-04T03:16:03.595Z,40.17
2019-03-04T03:18:33.275Z,39.10
2019-03-04T03:21:02.937Z,41.20
2019-03-04T03:23:32.593Z,39.33
2019-03-04T03:26:05.027Z,40.87
2019-03-04T03:28:34.680Z,41.83
2019-03-04T03:31:04.358Z,40.80
2019-03-04T03:33:34.053Z,39.43
2019-03-04T03:36:03.712Z,39.10
2019-03-04T03:38:33.332Z,40.13
2019-03-04T03:41:03.090Z,39.90
2019-03-04T03:43:32.762Z,39.03
2019-03-04T03:46:02.432Z,42.17
2019-03-04T03:48:32.120Z,40.77
2019-03-04T03:51:01.787Z,38.90
2019-03-04T03:53:31.451Z,38.93
2019-03-04T03:56:01.127Z,41.07
2019-03-04T03:58:30.894Z,40.63
2019-03-04T04:01:00.545Z,39.67
2019-03-04T04:03:30.527Z,39.97
2019-03-04T04:06:00.187Z,39.07
2019-03-04T04:08:29.843Z,39.37
2019-03-04T04:10:59.523Z,39.50
2019-03-04T04:13:29.177Z,39.03
2019-03-04T04:15:58.835Z,41.57
2019-03-04T04:18:28.554Z,39.30
2019-03-04T04:20:58.219Z,39.40
2019-03-04T04:23:27.869Z,42.03
2019-03-04T04:25:57.530Z,38.90
2019-03-04T04:28:27.967Z,41.07
2019-03-04T04:30:57.639Z,38.90
2019-03-04T04:33:27.323Z,38.63
2019-03-04T04:35:56.974Z,39.03
2019-03-04T04:38:26.616Z,39.70
2019-03-04T04:40:56.304Z,39.00
2019-03-04T04:43:25.966Z,40.53
2019-03-04T04:45:55.633Z,39.57
2019-03-04T04:48:25.534Z,39.17
2019-03-04T04:50:55.198Z,42.43
2019-03-04T04:53:24.862Z,39.40
2019-03-04T04:55:54.653Z,39.00
2019-03-04T04:58:24.382Z,43.40
2019-03-04T05:01:13.342Z,38.77
2019-03-04T05:03:42.999Z,40.10
2019-03-04T05:06:13.119Z,39.13
2019-03-04T05:08:43.008Z,40.00
2019-03-04T05:11:12.716Z,42.23
2019-03-04T05:13:42.370Z,40.97
2019-03-04T05:16:12.030Z,40.47
2019-03-04T05:18:41.813Z,39.23
2019-03-04T05:21:11.532Z,40.97
2019-03-04T05:23:41.208Z,43.13
2019-03-04T05:26:10.856Z,39.40
2019-03-04T05:28:40.518Z,41.20
2019-03-04T05:31:10.201Z,38.97
2019-03-04T05:33:39.855Z,42.20
2019-03-04T05:36:09.512Z,41.00
2019-03-04T05:38:39.193Z,39.30
2019-03-04T05:41:08.861Z,39.40
2019-03-04T05:43:38.510Z,40.77
2019-03-04T05:46:10.868Z,41.33
2019-03-04T05:48:40.520Z,46.40
2019-03-04T05:51:10.199Z,45.20
2019-03-04T05:53:39.865Z,40.70
2019-03-04T05:56:09.535Z,42.43
2019-03-04T05:58:39.201Z,39.47
2019-03-04T06:01:22.439Z,45.03
2019-03-04T06:04:02.622Z,40.17
2019-03-04T06:06:40.015Z,39.23
2019-03-04T06:09:13.219Z,43.53
2019-03-04T06:11:42.998Z,44.77
2019-03-04T06:14:12.675Z,42.83
2019-03-04T06:16:47.158Z,40.23
2019-03-04T06:19:13.779Z,40.17
2019-03-04T06:21:43.469Z,45.47
2019-03-04T06:24:13.114Z,39.90
2019-03-04T06:26:44.614Z,39.73
2019-03-04T06:29:14.291Z,41.77
2019-03-04T06:31:43.957Z,42.40
2019-03-04T06:34:13.603Z,39.53
2019-03-04T06:36:44.382Z,40.93
2019-03-04T06:39:14.040Z,39.67
2019-03-04T06:41:45.676Z,43.13
2019-03-04T06:44:16.820Z,44.30
2019-03-04T06:46:46.482Z,42.90
2019-03-04T06:49:17.278Z,44.20
2019-03-04T06:51:46.957Z,43.70
2019-03-04T06:54:41.771Z,41.53
2019-03-04T06:57:15.018Z,43.43
2019-03-04T07:00:18.029Z,43.30
2019-03-04T07:02:47.707Z,42.53
2019-03-04T07:05:51.842Z,45.20
2019-03-04T07:08:40.491Z,42.03
2019-03-04T07:11:10.162Z,40.20
2019-03-04T07:13:40.100Z,44.57
2019-03-04T07:16:09.790Z,39.97
2019-03-04T07:18:39.452Z,41.87
2019-03-04T07:21:11.254Z,39.83
2019-03-04T07:23:40.950Z,43.53
2019-03-04T07:26:10.666Z,44.80
2019-03-04T07:28:42.089Z,40.47
2019-03-04T07:31:11.855Z,42.63
2019-03-04T07:33:41.625Z,39.80
2019-03-04T07:36:11.275Z,40.17
2019-03-04T07:38:49.250Z,43.80
2019-03-04T07:41:18.911Z,39.57
2019-03-04T07:43:48.843Z,39.97
2019-03-04T07:46:18.536Z,41.90
2019-03-04T07:48:49.216Z,42.97
2019-03-04T07:51:19.959Z,44.03
2019-03-04T07:53:49.659Z,46.47
2019-03-04T07:56:19.316Z,41.67
2019-03-04T07:58:50.442Z,41.83
2019-03-04T08:01:20.161Z,48.60
2019-03-04T08:03:49.898Z,46.03
2019-03-04T08:06:19.584Z,47.70
2019-03-04T08:09:16.362Z,44.77
2019-03-04T08:12:16.058Z,43.60
2019-03-04T08:14:47.350Z,43.73
2019-03-04T08:17:17.015Z,42.63
2019-03-04T08:19:46.673Z,47.43
2019-03-04T08:22:16.348Z,45.27
2019-03-04T08:24:48.943Z,49.03
2019-03-04T08:27:20.654Z,45.23
2019-03-04T08:29:52.621Z,44.20
2019-03-04T08:32:23.327Z,44.30
2019-03-04T08:34:52.981Z,48.20
2019-03-04T08:37:23.391Z,46.40
2019-03-04T08:39:53.066Z,45.27
2019-03-04T08:42:34.484Z,47.00
2019-03-04T08:45:06.375Z,46.90
2019-03-04T08:47:36.031Z,46.43
2019-03-04T08:50:10.110Z,43.37
2019-03-04T08:52:42.201Z,47.97
2019-03-04T08:55:16.001Z,48.87
2019-03-04T08:57:46.785Z,42.23
2019-03-04T09:00:23.358Z,46.53
2019-03-04T09:02:53.013Z,45.07
2019-03-04T09:05:24.026Z,47.53
2019-03-04T09:07:53.708Z,45.57
2019-03-04T09:10:26.958Z,47.00
2019-03-04T09:12:56.414Z,45.40
2019-03-04T09:15:26.352Z,49.60
2019-03-04T09:17:56.075Z,47.40
2019-03-04T09:20:26.218Z,46.67
2019-03-04T09:22:56.710Z,46.33
2019-03-04T09:25:48.444Z,46.07
2019-03-04T09:28:18.198Z,45.33
2019-03-04T09:30:48.156Z,46.13
2019-03-04T09:33:17.857Z,44.57
2019-03-04T09:35:48.521Z,48.80
2019-03-04T09:38:18.168Z,46.13
2019-03-04T09:40:49.308Z,51.80
2019-03-04T09:43:19.027Z,45.43
2019-03-04T09:45:50.150Z,48.20
2019-03-04T09:48:19.816Z,48.27
2019-03-04T09:50:49.518Z,46.83
2019-03-04T09:53:19.182Z,46.47
2019-03-04T09:55:50.493Z,49.03
2019-03-04T09:58:21.739Z,48.90
2019-03-04T10:01:01.093Z,47.70
2019-03-04T10:03:41.055Z,45.63
2019-03-04T10:06:35.887Z,50.37
2019-03-04T10:09:35.552Z,50.37
2019-03-04T10:12:26.015Z,48.87
2019-03-04T10:15:20.772Z,46.23
2019-03-04T10:18:09.824Z,46.70
2019-03-04T10:21:05.131Z,48.83
2019-03-04T10:23:56.758Z,47.13
2019-03-04T10:26:42.482Z,46.77
2019-03-04T10:29:28.492Z,48.03
2019-03-04T10:32:31.080Z,46.03
2019-03-04T10:35:25.940Z,48.43
2019-03-04T10:38:11.845Z,46.70
2019-03-04T10:41:00.662Z,51.50
2019-03-04T10:44:01.902Z,48.33
2019-03-04T10:46:54.663Z,48.97
2019-03-04T10:49:26.100Z,49.13
2019-03-04T10:51:57.166Z,47.27
2019-03-04T10:54:27.242Z,47.50
2019-03-04T10:56:57.080Z,49.53
2019-03-04T10:59:27.691Z,50.17
2019-03-04T11:01:57.415Z,48.83
2019-03-04T11:04:27.118Z,48.67
2019-03-04T11:06:57.001Z,53.07
2019-03-04T11:09:27.260Z,49.70
2019-03-04T11:11:57.817Z,48.67
2019-03-04T11:14:27.498Z,49.87
2019-03-04T11:16:58.796Z,50.10
2019-03-04T11:19:28.481Z,48.70
2019-03-04T11:21:58.243Z,50.27
2019-03-04T11:24:27.905Z,49.87
2019-03-04T11:26:57.596Z,50.60
2019-03-04T11:29:28.721Z,52.60
2019-03-04T11:31:58.891Z,48.40
2019-03-04T11:34:28.588Z,48.30
2019-03-04T11:36:58.248Z,52.13
2019-03-04T11:39:46.054Z,49.73
2019-03-04T11:42:15.711Z,48.60
2019-03-04T11:44:51.222Z,50.23
2019-03-04T11:47:22.548Z,50.97
2019-03-04T11:49:53.439Z,52.07
2019-03-04T11:52:23.275Z,51.67
2019-03-04T11:54:52.971Z,51.27
2019-03-04T11:57:22.644Z,54.73
2019-03-04T11:59:52.299Z,53.93
2019-03-04T12:02:23.061Z,55.43
2019-03-04T12:04:52.800Z,51.23
2019-03-04T12:07:22.468Z,52.80
2019-03-04T12:09:52.155Z,49.67
2019-03-04T12:12:21.821Z,51.77
2019-03-04T12:14:51.496Z,52.67
2019-03-04T12:17:23.465Z,52.67
2019-03-04T12:19:53.187Z,53.10
2019-03-04T12:22:22.862Z,51.80
2019-03-04T12:24:52.620Z,56.33
2019-03-04T12:27:22.287Z,51.27
2019-03-04T12:29:51.956Z,52.10
2019-03-04T12:32:22.928Z,54.70
2019-03-04T12:34:52.808Z,51.43
2019-03-04T12:37:22.478Z,52.60
2019-03-04T12:39:52.273Z,70.60
2019-03-04T12:42:22.012Z,52.60
2019-03-04T12:44:51.685Z,51.20
2019-03-04T12:47:21.369Z,53.00
2019-03-04T12:49:51.034Z,52.43
2019-03-04T12:52:23.441Z,52.17
2019-03-04T12:54:53.185Z,53.13
2019-03-04T12:57:23.051Z,54.33
2019-03-04T12:59:52.756Z,54.53
2019-03-04T13:02:22.451Z,55.03
2019-03-04T13:04:52.114Z,52.87
2019-03-04T13:07:21.782Z,55.77
2019-03-04T13:09:51.459Z,53.43
2019-03-04T13:12:21.274Z,54.40
2019-03-04T13:14:52.240Z,52.33
2019-03-04T13:17:21.935Z,54.00
2019-03-04T13:19:56.396Z,53.10
2019-03-04T13:22:26.297Z,54.10
2019-03-04T13:24:56.067Z,54.23
2019-03-04T13:27:25.733Z,54.80
2019-03-04T13:29:55.416Z,51.27
2019-03-04T13:32:25.114Z,52.87
2019-03-04T13:34:56.230Z,52.53
2019-03-04T13:37:25.883Z,53.53
2019-03-04T13:39:55.582Z,51.57
2019-03-04T13:42:25.260Z,55.00
2019-03-04T13:44:54.935Z,54.60
2019-03-04T13:47:24.613Z,52.43
2019-03-04T13:49:54.287Z,51.60
2019-03-04T13:52:23.959Z,51.97
2019-03-04T13:54:53.641Z,53.73
2019-03-04T13:57:23.317Z,55.13
2019-03-04T13:59:53.060Z,55.40
2019-03-04T14:02:23.043Z,54.80
2019-03-04T14:04:52.703Z,51.23
2019-03-04T14:07:22.466Z,51.07
2019-03-04T14:09:52.167Z,52.57
2019-03-04T14:12:21.835Z,51.53
2019-03-04T14:14:51.506Z,52.47
2019-03-04T14:17:21.276Z,56.57
2019-03-04T14:19:50.941Z,53.53
2019-03-04T14:22:20.623Z,51.90
2019-03-04T14:24:50.299Z,53.00
2019-03-04T14:27:19.956Z,53.33
2019-03-04T14:29:49.620Z,52.63
2019-03-04T14:32:19.309Z,51.03
2019-03-04T14:34:48.971Z,52.63
2019-03-04T14:37:18.639Z,52.53
2019-03-04T14:39:48.322Z,51.87
2019-03-04T14:42:17.993Z,52.13
2019-03-04T14:44:47.659Z,51.40
2019-03-04T14:47:17.355Z,55.93
2019-03-04T14:49:47.010Z,51.80
2019-03-04T14:52:16.737Z,52.80
2019-03-04T14:54:46.409Z,51.87
2019-03-04T14:57:16.138Z,52.40
2019-03-04T14:59:45.791Z,50.60
2019-03-04T15:02:17.009Z,52.37
2019-03-04T15:04:46.673Z,49.80
2019-03-04T15:07:18.187Z,51.77
2019-03-04T15:09:49.567Z,50.27
2019-03-04T15:12:19.249Z,53.77
2019-03-04T15:14:48.927Z,52.47
2019-03-04T15:17:28.451Z,52.80
2019-03-04T15:19:58.108Z,49.97
2019-03-04T15:22:34.538Z,51.53
2019-03-04T15:25:00.150Z,52.90
2019-03-04T15:27:30.186Z,53.77
2019-03-04T15:29:59.920Z,52.47
2019-03-04T15:32:29.677Z,53.13
2019-03-04T15:34:59.335Z,50.23
2019-03-04T15:37:29.083Z,52.53
2019-03-04T15:39:58.760Z,49.83
2019-03-04T15:42:30.018Z,50.07
2019-03-04T15:44:59.669Z,51.17
2019-03-04T15:47:29.437Z,51.13
2019-03-04T15:49:59.163Z,49.23
2019-03-04T15:52:28.825Z,49.10
2019-03-04T15:54:58.537Z,49.57
2019-03-04T15:57:28.273Z,51.17
2019-03-04T15:59:58.131Z,49.47
2019-03-04T16:02:27.814Z,49.90
2019-03-04T16:05:17.651Z,49.20
2019-03-04T16:07:48.034Z,49.07
2019-03-04T16:10:28.726Z,52.73
2019-03-04T16:12:58.726Z,50.80
2019-03-04T16:15:28.851Z,50.23
2019-03-04T16:18:18.904Z,49.90
2019-03-04T16:20:50.946Z,53.73
2019-03-04T16:23:20.680Z,49.77
2019-03-04T16:25:50.435Z,49.13
2019-03-04T16:28:27.286Z,51.77
2019-03-04T16:30:56.968Z,49.63
2019-03-04T16:33:27.045Z,48.93
2019-03-04T16:35:58.259Z,49.63
2019-03-04T16:38:27.956Z,49.60
2019-03-04T16:40:59.334Z,47.70
2019-03-04T16:43:29.018Z,47.87
2019-03-04T16:45:58.756Z,47.77
2019-03-04T16:48:28.443Z,45.27
2019-03-04T16:50:58.173Z,45.90
2019-03-04T16:53:32.281Z,46.10
2019-03-04T16:56:01.947Z,49.03
2019-03-04T16:58:33.136Z,47.80
2019-03-04T17:01:04.111Z,49.30
2019-03-04T17:03:33.767Z,47.10
2019-03-04T17:06:06.047Z,50.07
2019-03-04T17:08:35.746Z,47.90
2019-03-04T17:11:05.615Z,47.53
2019-03-04T17:13:54.558Z,49.47
2019-03-04T17:16:25.924Z,49.97
2019-03-04T17:18:55.551Z,48.27
2019-03-04T17:21:25.264Z,49.93
2019-03-04T17:23:56.563Z,48.30
2019-03-04T17:26:26.335Z,48.93
2019-03-04T17:28:56.338Z,50.33
2019-03-04T17:31:26.018Z,49.07
2019-03-04T17:33:55.692Z,47.73
2019-03-04T17:36:25.396Z,46.50
2019-03-04T17:38:57.027Z,46.37
2019-03-04T17:41:26.909Z,46.50
2019-03-04T17:43:56.600Z,46.17
2019-03-04T17:46:26.665Z,45.90
2019-03-04T17:48:56.338Z,47.73
2019-03-04T17:51:26.024Z,46.30
2019-03-04T17:53:55.719Z,46.67
2019-03-04T17:56:25.411Z,46.97
2019-03-04T17:58:55.105Z,46.27
2019-03-04T18:01:25.926Z,45.07
2019-03-04T18:03:57.082Z,48.30
2019-03-04T18:06:26.775Z,48.03
2019-03-04T18:08:56.512Z,44.93
2019-03-04T18:11:26.212Z,45.67
2019-03-04T18:13:55.915Z,43.37
2019-03-04T18:16:26.833Z,44.30
2019-03-04T18:18:56.783Z,48.20
2019-03-04T18:21:26.511Z,47.50
2019-03-04T18:23:58.594Z,46.03
2019-03-04T18:26:32.984Z,45.27
2019-03-04T18:29:09.726Z,44.80
2019-03-04T18:32:20.941Z,45.83
2019-03-04T18:35:24.807Z,46.30
2019-03-04T18:38:10.846Z,42.83
2019-03-04T18:41:12.937Z,43.77
2019-03-04T18:44:11.391Z,42.63
2019-03-04T18:46:54.032Z,44.23
2019-03-04T18:49:24.051Z,44.97
2019-03-04T18:51:53.745Z,44.63
2019-03-04T18:54:24.426Z,48.37
2019-03-04T18:56:54.335Z,45.40
2019-03-04T18:59:24.003Z,45.00
2019-03-04T19:01:53.653Z,45.00
2019-03-04T19:04:24.792Z,45.70
2019-03-04T19:06:54.474Z,45.10
2019-03-04T19:09:24.396Z,49.73
2019-03-04T19:11:54.266Z,46.00
2019-03-04T19:14:24.034Z,45.97
2019-03-04T19:16:55.163Z,51.27
2019-03-04T19:19:26.199Z,47.47
2019-03-04T19:21:56.042Z,51.50
2019-03-04T19:24:25.704Z,52.43
2019-03-04T19:26:55.407Z,49.57
2019-03-04T19:29:25.078Z,51.57
2019-03-04T19:31:54.734Z,51.53
2019-03-04T19:34:25.572Z,51.63
2019-03-04T19:36:55.383Z,46.70
2019-03-04T19:39:25.030Z,50.37
2019-03-04T19:41:54.739Z,48.80
2019-03-04T19:44:25.608Z,50.50
2019-03-04T19:46:55.260Z,47.60
2019-03-04T19:49:25.627Z,46.67
2019-03-04T19:51:55.278Z,48.33
2019-03-04T19:54:24.945Z,44.33
2019-03-04T19:56:57.533Z,44.63
2019-03-04T19:59:27.221Z,47.20
2019-03-04T20:01:57.265Z,46.63
2019-03-04T20:04:26.937Z,45.43
2019-03-04T20:06:56.796Z,46.83
2019-03-04T20:09:26.562Z,47.77
2019-03-04T20:11:56.237Z,44.33
2019-03-04T20:14:26.167Z,45.13
2019-03-04T20:16:56.131Z,50.23
2019-03-04T20:19:25.825Z,44.90
2019-03-04T20:21:55.560Z,44.77
2019-03-04T20:24:25.331Z,44.87
2019-03-04T20:26:55.010Z,42.83
2019-03-04T20:29:24.983Z,46.93
2019-03-04T20:31:54.657Z,44.77
2019-03-04T20:34:24.396Z,43.50
2019-03-04T20:36:55.525Z,43.47
2019-03-04T20:39:25.631Z,47.13
2019-03-04T20:41:55.334Z,45.73
2019-03-04T20:44:24.992Z,45.47
2019-03-04T20:46:54.756Z,44.13
2019-03-04T20:49:24.439Z,47.93
2019-03-04T20:51:54.447Z,47.77
2019-03-04T20:54:24.123Z,44.10
2019-03-04T20:56:55.281Z,44.17
2019-03-04T20:59:26.470Z,43.10
2019-03-04T21:01:57.440Z,44.03
2019-03-04T21:04:27.133Z,41.77
2019-03-04T21:06:56.780Z,43.77
2019-03-04T21:09:29.789Z,45.70
2019-03-04T21:11:59.562Z,45.47
2019-03-04T21:14:29.272Z,44.47
2019-03-04T21:16:58.885Z,44.40
2019-03-04T21:19:28.578Z,43.70
2019-03-04T21:21:58.318Z,42.00
2019-03-04T21:24:27.980Z,43.07
2019-03-04T21:27:00.845Z,43.20
2019-03-04T21:29:36.473Z,42.47
2019-03-04T21:32:19.563Z,44.57
2019-03-04T21:35:29.411Z,41.70
2019-03-04T21:37:59.428Z,46.10
2019-03-04T21:40:36.506Z,44.27
2019-03-04T21:43:16.565Z,45.27
2019-03-04T21:46:10.398Z,45.00
2019-03-04T21:48:53.112Z,44.23
2019-03-04T21:51:38.749Z,42.00
2019-03-04T21:54:10.965Z,45.20
2019-03-04T21:57:00.251Z,40.67
2019-03-04T21:59:31.615Z,45.47
2019-03-04T22:02:08.216Z,45.97
2019-03-04T22:04:39.481Z,44.23
2019-03-04T22:07:09.450Z,42.53
2019-03-04T22:09:38.908Z,43.40
2019-03-04T22:12:14.535Z,47.10
2019-03-04T22:14:44.167Z,44.90
2019-03-04T22:17:17.165Z,42.97
2019-03-04T22:19:47.102Z,46.03
2019-03-04T22:22:16.883Z,44.43
2019-03-04T22:24:46.518Z,44.37
2019-03-04T22:27:17.354Z,41.80
2019-03-04T22:29:48.513Z,45.83
2019-03-04T22:32:18.177Z,43.03
2019-03-04T22:34:50.806Z,44.93
2019-03-04T22:37:20.475Z,47.03
2019-03-04T22:39:52.153Z,44.30
2019-03-04T22:42:21.887Z,43.10
2019-03-04T22:44:51.519Z,46.23
2019-03-04T22:47:22.960Z,43.70
2019-03-04T22:49:52.655Z,43.23
2019-03-04T22:52:22.301Z,43.43
2019-03-04T22:54:53.361Z,41.80
2019-03-04T22:57:23.047Z,42.27
2019-03-04T22:59:52.691Z,47.10
2019-03-04T23:02:25.294Z,42.37
2019-03-04T23:04:54.978Z,44.77
2019-03-04T23:07:26.503Z,47.03
2019-03-04T23:10:00.949Z,40.53
2019-03-04T23:12:35.095Z,40.10
2019-03-04T23:15:15.007Z,41.53
2019-03-04T23:17:44.669Z,40.43
2019-03-04T23:20:14.515Z,44.87
2019-03-04T23:22:45.731Z,40.63
2019-03-04T23:25:15.679Z,40.00
2019-03-04T23:27:46.819Z,42.27
2019-03-04T23:30:18.534Z,41.20
2019-03-04T23:32:48.193Z,41.13
2019-03-04T23:35:21.063Z,39.83
2019-03-04T23:37:50.738Z,41.67
2019-03-04T23:40:20.530Z,39.60
2019-03-04T23:42:50.213Z,40.10
2019-03-04T23:45:19.971Z,40.07
2019-03-04T23:47:49.614Z,40.57
2019-03-04T23:50:22.388Z,44.80
2019-03-04T23:52:52.219Z,39.37
2019-03-04T23:55:22.732Z,46.00
2019-03-04T23:57:54.036Z,39.63
